createdAt,value
2023-02-24T00:02:52.759Z,72.66
2023-02-24T00:05:56.018Z,72.68
2023-02-24T00:08:59.223Z,72.66
2023-02-24T00:12:05.944Z,72.66
2023-02-24T00:15:09.511Z,72.66
2023-02-24T00:18:12.730Z,72.67
2023-02-24T00:21:17.221Z,72.68
2023-02-24T00:24:22.242Z,72.69
2023-02-24T00:27:25.495Z,72.70
2023-02-24T00:30:30.079Z,72.70
2023-02-24T00:33:34.471Z,72.71
2023-02-24T00:36:37.677Z,72.69
2023-02-24T00:39:41.846Z,72.72
2023-02-24T00:42:48.649Z,72.75
2023-02-24T00:45:52.207Z,72.75
2023-02-24T00:48:57.266Z,72.75
2023-02-24T00:52:00.490Z,72.74
2023-02-24T00:55:14.043Z,72.75
2023-02-24T00:58:19.674Z,72.75
2023-02-24T01:01:25.475Z,72.75
2023-02-24T01:04:29.428Z,72.73
2023-02-24T01:07:33.141Z,72.72
2023-02-24T01:10:36.366Z,72.72
2023-02-24T01:13:39.630Z,72.72
2023-02-24T01:16:50.676Z,72.74
2023-02-24T01:19:55.155Z,72.75
2023-02-24T01:22:58.846Z,72.77
2023-02-24T01:26:03.232Z,72.75
2023-02-24T01:29:09.802Z,72.76
2023-02-24T01:32:20.464Z,72.77
2023-02-24T01:35:25.757Z,72.77
2023-02-24T01:38:28.991Z,72.78
2023-02-24T01:41:32.515Z,72.80
2023-02-24T01:44:35.706Z,72.82
2023-02-24T01:47:39.332Z,72.82
2023-02-24T01:50:42.962Z,72.82
2023-02-24T01:53:46.681Z,72.83
2023-02-24T01:56:52.885Z,72.82
2023-02-24T02:00:02.265Z,72.83
2023-02-24T02:03:13.325Z,72.83
2023-02-24T02:06:17.911Z,72.84
2023-02-24T02:09:21.267Z,72.82
2023-02-24T02:12:29.100Z,72.80
2023-02-24T02:15:43.519Z,72.81
2023-02-24T02:19:12.808Z,72.81
2023-02-24T02:22:23.528Z,72.81
2023-02-24T02:25:44.901Z,72.80
2023-02-24T02:29:25.577Z,72.78
2023-02-24T02:32:53.156Z,72.78
2023-02-24T02:36:03.063Z,72.78
2023-02-24T02:39:35.228Z,72.78
2023-02-24T02:42:47.617Z,72.79
2023-02-24T02:45:58.162Z,72.82
2023-02-24T02:49:30.491Z,72.80
2023-02-24T02:52:47.133Z,72.78
2023-02-24T02:56:08.402Z,72.77
2023-02-24T02:59:14.907Z,72.78
2023-02-24T03:02:21.536Z,72.79
2023-02-24T03:05:33.194Z,72.82
2023-02-24T03:08:40.379Z,72.85
2023-02-24T03:11:48.353Z,72.88
2023-02-24T03:15:02.083Z,72.95
2023-02-24T03:18:13.473Z,73.02
2023-02-24T03:21:39.205Z,73.10
2023-02-24T03:24:45.706Z,73.16
2023-02-24T03:28:08.482Z,73.23
2023-02-24T03:31:50.980Z,73.31
2023-02-24T03:35:04.364Z,73.44
2023-02-24T03:38:12.089Z,73.60
2023-02-24T03:41:17.223Z,73.71
2023-02-24T03:44:20.605Z,73.78
2023-02-24T03:47:25.746Z,73.90
2023-02-24T03:50:31.909Z,74.01
2023-02-24T03:54:03.449Z,74.13
2023-02-24T03:57:54.792Z,74.24
2023-02-24T04:01:31.043Z,74.36
2023-02-24T04:04:45.597Z,74.68
2023-02-24T04:08:09.965Z,74.84
2023-02-24T04:11:30.754Z,75.02
2023-02-24T04:14:47.607Z,75.35
2023-02-24T04:17:57.716Z,75.55
2023-02-24T04:21:05.577Z,75.74
2023-02-24T04:24:15.865Z,75.88
2023-02-24T04:27:21.189Z,75.94
2023-02-24T04:30:29.793Z,76.05
2023-02-24T04:33:33.613Z,76.23
2023-02-24T04:36:38.380Z,76.37
2023-02-24T04:39:41.859Z,76.44
2023-02-24T04:42:51.999Z,76.55
2023-02-24T04:45:56.150Z,76.58
2023-02-24T04:49:02.390Z,76.73
2023-02-24T04:52:05.884Z,76.88
2023-02-24T04:55:10.886Z,76.95
2023-02-24T04:58:19.476Z,77.03
2023-02-24T05:01:23.071Z,77.13
2023-02-24T05:04:26.651Z,77.19
2023-02-24T05:07:30.024Z,77.22
2023-02-24T05:10:39.881Z,77.28
2023-02-24T05:13:47.204Z,77.35
2023-02-24T05:16:51.112Z,77.44
2023-02-24T05:20:12.777Z,77.57
2023-02-24T05:23:17.015Z,77.36
2023-02-24T05:26:24.069Z,77.53
2023-02-24T05:29:30.640Z,77.68
2023-02-24T05:32:35.818Z,77.66
2023-02-24T05:35:39.608Z,77.66
2023-02-24T05:38:56.613Z,77.70
2023-02-24T05:42:06.272Z,77.81
2023-02-24T05:45:11.264Z,77.90
2023-02-24T05:48:17.188Z,77.94
2023-02-24T05:51:20.695Z,77.87
2023-02-24T05:54:30.917Z,77.94
2023-02-24T05:57:35.768Z,78.05
2023-02-24T06:00:39.966Z,78.09
2023-02-24T06:03:48.031Z,78.09
2023-02-24T06:06:52.596Z,78.18
2023-02-24T06:09:58.634Z,78.21
2023-02-24T06:13:02.581Z,78.24
2023-02-24T06:16:06.934Z,78.26
2023-02-24T06:19:12.293Z,78.37
2023-02-24T06:22:19.151Z,78.56
2023-02-24T06:25:25.084Z,78.59
2023-02-24T06:28:28.889Z,78.63
2023-02-24T06:31:32.181Z,78.71
2023-02-24T06:34:36.259Z,78.83
2023-02-24T06:37:39.651Z,78.83
2023-02-24T06:40:42.863Z,78.91
2023-02-24T06:43:48.313Z,78.92
2023-02-24T06:46:51.507Z,79.04
2023-02-24T06:49:54.745Z,79.13
2023-02-24T06:53:00.927Z,79.27
2023-02-24T06:56:07.130Z,79.39
2023-02-24T06:59:16.015Z,79.46
2023-02-24T07:02:19.182Z,79.54
2023-02-24T07:05:24.278Z,79.45
2023-02-24T07:08:27.484Z,79.54
2023-02-24T07:11:31.015Z,79.65
2023-02-24T07:14:37.046Z,79.76
2023-02-24T07:17:40.373Z,79.85
2023-02-24T07:20:46.200Z,79.95
2023-02-24T07:23:50.747Z,80.04
2023-02-24T07:27:23.353Z,80.17
2023-02-24T07:30:26.888Z,80.28
2023-02-24T07:33:30.085Z,80.29
2023-02-24T07:36:38.986Z,80.48
2023-02-24T07:39:43.214Z,80.43
2023-02-24T07:42:47.763Z,80.61
2023-02-24T07:45:52.894Z,80.76
2023-02-24T07:48:59.321Z,80.68
2023-02-24T07:52:02.723Z,80.76
2023-02-24T07:55:09.060Z,80.84
2023-02-24T07:58:12.406Z,80.90
2023-02-24T08:01:23.315Z,80.91
2023-02-24T08:04:29.346Z,81.07
2023-02-24T08:07:34.086Z,81.11
2023-02-24T08:10:37.382Z,81.09
2023-02-24T08:13:40.718Z,81.18
2023-02-24T08:16:45.927Z,81.24
2023-02-24T08:20:08.652Z,81.36
2023-02-24T08:23:14.333Z,81.41
2023-02-24T08:26:19.610Z,81.55
2023-02-24T08:29:23.023Z,81.58
2023-02-24T08:32:43.622Z,81.66
2023-02-24T08:35:52.180Z,81.69
2023-02-24T08:38:59.389Z,81.72
2023-02-24T08:42:03.136Z,81.91
2023-02-24T08:45:07.056Z,81.97
2023-02-24T08:48:18.672Z,82.02
2023-02-24T08:51:30.010Z,82.12
2023-02-24T08:54:33.845Z,82.16
2023-02-24T08:57:37.222Z,82.21
2023-02-24T09:00:49.355Z,82.30
2023-02-24T09:03:56.640Z,82.29
2023-02-24T09:07:11.254Z,82.29
2023-02-24T09:10:18.442Z,82.27
2023-02-24T09:13:21.767Z,82.36
2023-02-24T09:16:25.526Z,82.37
2023-02-24T09:19:46.615Z,82.38
2023-02-24T09:23:07.397Z,82.33
2023-02-24T09:26:11.254Z,82.37
2023-02-24T09:29:33.739Z,82.36
2023-02-24T09:32:37.220Z,82.38
2023-02-24T09:35:42.853Z,82.30
2023-02-24T09:39:01.576Z,82.22
2023-02-24T09:42:12.663Z,82.18
2023-02-24T09:45:33.578Z,82.24
2023-02-24T09:48:46.292Z,82.34
2023-02-24T09:52:00.338Z,82.44
2023-02-24T09:55:22.290Z,82.42
2023-02-24T09:58:43.702Z,82.41
2023-02-24T10:02:10.261Z,82.39
2023-02-24T10:05:27.808Z,82.44
2023-02-24T10:08:38.384Z,82.46
2023-02-24T10:11:54.094Z,82.50
2023-02-24T10:15:32.413Z,82.52
2023-02-24T10:19:15.137Z,82.61
2023-02-24T10:22:29.980Z,82.71
2023-02-24T10:25:54.022Z,82.71
2023-02-24T10:29:29.552Z,82.84
2023-02-24T10:32:47.281Z,83.00
2023-02-24T10:35:51.604Z,83.02
2023-02-24T10:38:56.392Z,83.02
2023-02-24T10:42:22.862Z,83.06
2023-02-24T10:45:34.772Z,83.01
2023-02-24T10:48:42.794Z,83.00
2023-02-24T10:51:53.293Z,82.97
2023-02-24T10:55:28.332Z,83.03
2023-02-24T10:58:38.314Z,83.02
2023-02-24T11:01:59.180Z,82.97
2023-02-24T11:05:27.418Z,83.03
2023-02-24T11:08:39.952Z,83.11
2023-02-24T11:12:01.860Z,83.21
2023-02-24T11:15:36.557Z,83.20
2023-02-24T11:18:45.963Z,83.18
2023-02-24T11:21:49.476Z,83.16
2023-02-24T11:24:53.871Z,83.14
2023-02-24T11:27:57.964Z,83.13
2023-02-24T11:31:07.361Z,83.10
2023-02-24T11:34:30.160Z,83.07
2023-02-24T11:37:47.020Z,83.09
2023-02-24T11:41:02.922Z,83.10
2023-02-24T11:44:15.742Z,83.15
2023-02-24T11:47:24.236Z,83.25
2023-02-24T11:50:55.807Z,83.33
2023-02-24T11:54:03.319Z,83.47
2023-02-24T11:57:15.457Z,83.54
2023-02-24T12:00:23.698Z,83.64
2023-02-24T12:03:49.567Z,83.74
2023-02-24T12:07:09.316Z,83.82
2023-02-24T12:10:22.664Z,83.84
2023-02-24T12:13:48.796Z,83.77
2023-02-24T12:17:00.370Z,83.71
2023-02-24T12:20:30.596Z,83.63
2023-02-24T12:23:40.353Z,83.54
2023-02-24T12:27:02.736Z,83.43
2023-02-24T12:30:34.103Z,83.35
2023-02-24T12:33:42.926Z,83.34
2023-02-24T12:36:54.957Z,83.33
2023-02-24T12:40:01.314Z,83.34
2023-02-24T12:43:19.911Z,83.31
2023-02-24T12:46:33.646Z,83.27
2023-02-24T12:49:40.377Z,83.27
2023-02-24T12:52:49.433Z,83.29
2023-02-24T12:55:56.859Z,83.31
2023-02-24T12:59:05.574Z,83.30
2023-02-24T13:02:56.684Z,83.26
2023-02-24T13:06:20.937Z,83.23
2023-02-24T13:09:54.333Z,83.32
2023-02-24T13:13:18.829Z,83.41
2023-02-24T13:16:30.661Z,83.48
2023-02-24T13:19:34.081Z,83.50
2023-02-24T13:22:42.117Z,83.52
2023-02-24T13:25:52.447Z,83.54
2023-02-24T13:29:00.613Z,83.52
2023-02-24T13:32:04.769Z,83.49
2023-02-24T13:35:14.323Z,83.50
2023-02-24T13:38:25.434Z,83.49
2023-02-24T13:41:28.679Z,83.46
2023-02-24T13:44:32.799Z,83.42
2023-02-24T13:47:59.349Z,83.34
2023-02-24T13:51:35.227Z,83.32
2023-02-24T13:54:38.713Z,83.31
2023-02-24T13:57:45.082Z,83.31
2023-02-24T14:01:05.191Z,83.34
2023-02-24T14:04:27.308Z,83.40
2023-02-24T14:07:36.381Z,83.47
2023-02-24T14:10:46.033Z,83.50
2023-02-24T14:13:53.022Z,83.56
2023-02-24T14:16:56.443Z,83.64
2023-02-24T14:20:20.432Z,83.68
2023-02-24T14:23:30.090Z,83.79
2023-02-24T14:26:42.811Z,83.84
2023-02-24T14:29:46.118Z,83.89
2023-02-24T14:32:49.613Z,83.92
2023-02-24T14:35:53.258Z,83.90
2023-02-24T14:39:01.982Z,83.57
2023-02-24T14:42:13.297Z,83.30
2023-02-24T14:45:18.709Z,83.01
2023-02-24T14:48:29.977Z,82.79
2023-02-24T14:51:36.199Z,82.67
2023-02-24T14:54:48.593Z,82.66
2023-02-24T14:57:56.647Z,82.67
2023-02-24T15:01:15.269Z,82.65
2023-02-24T15:04:37.429Z,82.64
2023-02-24T15:07:45.287Z,82.64
2023-02-24T15:10:48.924Z,82.62
2023-02-24T15:14:08.452Z,82.61
2023-02-24T15:17:17.437Z,82.66
2023-02-24T15:20:40.854Z,82.69
2023-02-24T15:23:45.914Z,82.67
2023-02-24T15:26:54.874Z,82.63
2023-02-24T15:30:08.603Z,82.57
2023-02-24T15:33:21.812Z,82.52
2023-02-24T15:36:32.191Z,82.47
2023-02-24T15:39:37.125Z,82.37
2023-02-24T15:42:55.073Z,82.27
2023-02-24T15:45:58.440Z,82.31
2023-02-24T15:49:04.726Z,82.35
2023-02-24T15:52:10.582Z,82.39
2023-02-24T15:55:21.862Z,82.42
2023-02-24T15:58:25.711Z,82.46
2023-02-24T16:01:31.001Z,82.48
2023-02-24T16:04:34.373Z,82.55
2023-02-24T16:07:38.291Z,82.61
2023-02-24T16:11:10.317Z,82.67
2023-02-24T16:14:18.417Z,82.72
2023-02-24T16:17:27.212Z,82.63
2023-02-24T16:20:39.757Z,82.62
2023-02-24T16:23:43.235Z,82.62
2023-02-24T16:26:46.535Z,82.56
2023-02-24T16:29:49.733Z,82.55
2023-02-24T16:32:53.195Z,82.54
2023-02-24T16:35:56.787Z,82.47
2023-02-24T16:39:01.215Z,82.37
2023-02-24T16:42:07.397Z,82.24
2023-02-24T16:45:11.096Z,82.10
2023-02-24T16:48:24.504Z,81.84
2023-02-24T16:51:29.114Z,81.65
2023-02-24T16:54:32.317Z,81.57
2023-02-24T16:57:35.685Z,81.41
2023-02-24T17:00:40.816Z,81.25
2023-02-24T17:03:46.682Z,81.14
2023-02-24T17:06:49.958Z,81.01
2023-02-24T17:09:53.181Z,80.97
2023-02-24T17:12:56.402Z,80.86
2023-02-24T17:16:03.602Z,80.78
2023-02-24T17:19:06.983Z,80.72
2023-02-24T17:22:10.501Z,80.66
2023-02-24T17:25:20.211Z,80.57
2023-02-24T17:28:23.881Z,80.49
2023-02-24T17:31:31.901Z,80.45
2023-02-24T17:34:35.491Z,80.38
2023-02-24T17:37:39.841Z,80.37
2023-02-24T17:40:44.695Z,80.31
2023-02-24T17:43:50.866Z,80.29
2023-02-24T17:46:54.535Z,80.26
2023-02-24T17:49:58.025Z,80.25
2023-02-24T17:53:01.474Z,80.27
2023-02-24T17:56:06.023Z,80.31
2023-02-24T17:59:09.645Z,80.29
2023-02-24T18:02:17.604Z,80.27
2023-02-24T18:05:21.450Z,80.25
2023-02-24T18:08:24.804Z,80.22
2023-02-24T18:11:28.028Z,80.25
2023-02-24T18:14:31.397Z,80.26
2023-02-24T18:17:35.761Z,80.24
2023-02-24T18:20:43.615Z,80.22
2023-02-24T18:23:49.145Z,80.24
2023-02-24T18:26:52.397Z,80.24
2023-02-24T18:29:56.039Z,80.25
2023-02-24T18:32:59.644Z,80.26
2023-02-24T18:36:02.987Z,80.26
2023-02-24T18:39:06.262Z,80.25
2023-02-24T18:42:09.873Z,80.23
2023-02-24T18:45:13.125Z,80.22
2023-02-24T18:48:16.404Z,80.22
2023-02-24T18:51:22.459Z,80.19
2023-02-24T18:54:25.901Z,80.19
2023-02-24T18:57:29.343Z,80.17
2023-02-24T19:00:32.604Z,80.15
2023-02-24T19:03:35.789Z,80.12
2023-02-24T19:06:40.720Z,80.07
2023-02-24T19:09:46.885Z,80.03
2023-02-24T19:12:52.041Z,80.02
2023-02-24T19:15:55.315Z,80.06
2023-02-24T19:19:00.082Z,80.11
2023-02-24T19:22:03.277Z,80.17
2023-02-24T19:25:06.600Z,80.21
2023-02-24T19:28:09.814Z,80.24
2023-02-24T19:31:20.492Z,80.28
2023-02-24T19:34:23.946Z,80.34
2023-02-24T19:37:27.193Z,80.38
2023-02-24T19:40:30.476Z,80.40
2023-02-24T19:43:33.816Z,80.42
2023-02-24T19:46:38.158Z,80.50
2023-02-24T19:49:41.519Z,80.59
2023-02-24T19:52:44.821Z,80.69
2023-02-24T19:55:49.790Z,80.77
2023-02-24T19:58:54.685Z,80.86
2023-02-24T20:01:58.117Z,80.94
2023-02-24T20:05:01.372Z,81.04
2023-02-24T20:08:04.689Z,81.16
2023-02-24T20:11:07.872Z,81.24
2023-02-24T20:14:12.696Z,81.31
2023-02-24T20:17:17.510Z,81.35
2023-02-24T20:20:20.938Z,81.38
2023-02-24T20:23:24.329Z,82.11
2023-02-24T20:26:28.679Z,82.23
2023-02-24T20:29:33.709Z,82.05
2023-02-24T20:32:37.767Z,81.91
2023-02-24T20:35:41.307Z,81.81
2023-02-24T20:38:44.803Z,81.71
2023-02-24T20:41:50.498Z,81.65
2023-02-24T20:44:53.753Z,81.62
2023-02-24T20:47:57.004Z,81.59
2023-02-24T20:51:04.139Z,81.57
2023-02-24T20:54:09.675Z,81.59
2023-02-24T20:57:12.934Z,81.62
2023-02-24T21:00:17.083Z,81.62
2023-02-24T21:03:21.981Z,81.61
2023-02-24T21:06:26.061Z,81.63
2023-02-24T21:09:29.432Z,81.65
2023-02-24T21:12:34.374Z,81.65
2023-02-24T21:15:40.240Z,81.66
2023-02-24T21:18:45.548Z,81.67
2023-02-24T21:21:48.892Z,81.66
2023-02-24T21:24:52.260Z,81.65
2023-02-24T21:27:55.829Z,81.66
2023-02-24T21:30:59.298Z,81.71
2023-02-24T21:34:02.810Z,81.75
2023-02-24T21:37:06.243Z,81.80
2023-02-24T21:40:13.084Z,81.82
2023-02-24T21:43:17.838Z,81.80
2023-02-24T21:46:22.090Z,81.73
2023-02-24T21:49:26.566Z,81.67
2023-02-24T21:52:30.036Z,81.62
2023-02-24T21:55:34.151Z,81.52
2023-02-24T21:58:39.484Z,81.40
2023-02-24T22:01:45.249Z,81.28
2023-02-24T22:04:49.409Z,81.12
2023-02-24T22:07:53.123Z,81.04
2023-02-24T22:11:01.087Z,81.03
2023-02-24T22:14:08.393Z,81.14
2023-02-24T22:17:11.833Z,81.30
2023-02-24T22:20:15.192Z,81.43
2023-02-24T22:23:18.577Z,81.57
2023-02-24T22:26:25.801Z,81.65
2023-02-24T22:29:29.177Z,81.71
2023-02-24T22:32:32.589Z,81.74
2023-02-24T22:35:36.687Z,81.77
2023-02-24T22:38:40.770Z,81.79
2023-02-24T22:41:45.556Z,81.75
2023-02-24T22:44:48.879Z,81.63
2023-02-24T22:47:52.266Z,81.55
2023-02-24T22:50:57.869Z,81.39
2023-02-24T22:54:01.215Z,81.26
2023-02-24T22:57:04.547Z,81.19
2023-02-24T23:00:10.874Z,81.10
2023-02-24T23:03:16.385Z,80.95
2023-02-24T23:06:23.315Z,80.88
2023-02-24T23:09:28.116Z,80.83
2023-02-24T23:12:31.429Z,80.82
2023-02-24T23:15:39.040Z,80.80
2023-02-24T23:18:48.608Z,80.78
2023-02-24T23:21:53.618Z,80.73
2023-02-24T23:24:56.822Z,80.71
2023-02-24T23:28:00.297Z,80.64
2023-02-24T23:31:03.973Z,80.50
2023-02-24T23:34:07.696Z,80.45
2023-02-24T23:37:12.174Z,80.22
2023-02-24T23:40:15.741Z,79.93
2023-02-24T23:43:18.978Z,79.68
2023-02-24T23:46:22.663Z,79.42
2023-02-24T23:49:36.152Z,79.26
2023-02-24T23:52:45.826Z,79.03
2023-02-24T23:55:50.486Z,78.89
2023-02-24T23:58:57.001Z,78.77
